createdAt,value
2023-03-18T00:02:30.197Z,-1.47
2023-03-18T00:05:10.145Z,-1.46
2023-03-18T00:08:04.116Z,-1.48
2023-03-18T00:10:51.161Z,-1.50
2023-03-18T00:13:31.206Z,-1.52
2023-03-18T00:16:26.161Z,-1.52
2023-03-18T00:19:20.163Z,-1.54
2023-03-18T00:22:15.125Z,-1.58
2023-03-18T00:25:02.144Z,-1.61
2023-03-18T00:27:42.110Z,-1.59
2023-03-18T00:30:29.285Z,-1.56
2023-03-18T00:33:03.356Z,-1.54
2023-03-18T00:35:54.144Z,-1.53
2023-03-18T00:38:34.152Z,-1.55
2023-03-18T00:41:28.153Z,-1.57
2023-03-18T00:44:15.150Z,-1.59
2023-03-18T00:46:55.216Z,-1.62
2023-03-18T00:49:42.145Z,-1.68
2023-03-18T00:52:15.271Z,-1.73
2023-03-18T00:55:02.173Z,-1.75
2023-03-18T00:57:37.305Z,-1.72
2023-03-18T01:00:25.162Z,-1.70
2023-03-18T01:02:59.453Z,-1.71
2023-03-18T01:05:46.138Z,-1.74
2023-03-18T01:08:19.321Z,-1.74
2023-03-18T01:11:06.204Z,-1.75
2023-03-18T01:13:41.259Z,-1.77
2023-03-18T01:16:30.303Z,-1.77
2023-03-18T01:19:04.462Z,-1.77
2023-03-18T01:21:51.133Z,-1.80
2023-03-18T01:24:31.163Z,-1.79
2023-03-18T01:27:18.132Z,-1.76
2023-03-18T01:29:51.858Z,-1.81
2023-03-18T01:32:38.224Z,-1.80
2023-03-18T01:35:12.481Z,-1.82
2023-03-18T01:40:33.547Z,-1.80
2023-03-18T01:43:23.159Z,-1.80
2023-03-18T01:46:06.162Z,-1.85
2023-03-18T01:48:53.173Z,-1.89
2023-03-18T01:51:27.280Z,-1.92
2023-03-18T01:54:15.157Z,-1.93
2023-03-18T01:56:58.157Z,-1.93
2023-03-18T01:59:55.186Z,-1.91
2023-03-18T02:02:42.149Z,-1.94
2023-03-18T02:05:18.275Z,-1.97
2023-03-18T02:08:05.166Z,-1.98
2023-03-18T02:10:39.729Z,-1.99
2023-03-18T02:13:26.187Z,-1.98
2023-03-18T02:16:04.271Z,-2.00
2023-03-18T02:18:58.152Z,-2.01
2023-03-18T02:22:06.309Z,-2.02
2023-03-18T02:25:15.183Z,-2.06
2023-03-18T02:28:02.202Z,-2.09
2023-03-18T02:31:02.322Z,-2.07
2023-03-18T02:33:50.143Z,-2.10
2023-03-18T02:36:30.272Z,-2.12
2023-03-18T02:39:22.164Z,-2.11
2023-03-18T02:41:55.313Z,-2.14
2023-03-18T02:44:47.188Z,-2.15
2023-03-18T02:47:27.348Z,-2.14
2023-03-18T02:50:14.182Z,-2.15
2023-03-18T02:52:54.173Z,-2.19
2023-03-18T02:55:48.175Z,-2.20
2023-03-18T02:58:35.224Z,-2.20
2023-03-18T03:01:15.261Z,-2.19
2023-03-18T03:04:03.187Z,-2.25
2023-03-18T03:06:58.200Z,-2.29
2023-03-18T03:09:45.187Z,-2.31
2023-03-18T03:12:18.268Z,-2.28
2023-03-18T03:15:05.171Z,-2.27
2023-03-18T03:17:38.296Z,-2.28
2023-03-18T03:20:25.201Z,-2.27
2023-03-18T03:22:58.376Z,-2.30
2023-03-18T03:25:45.170Z,-2.33
2023-03-18T03:28:27.211Z,-2.37
2023-03-18T03:31:21.228Z,-2.33
2023-03-18T03:34:09.182Z,-2.31
2023-03-18T03:36:50.195Z,-2.31
2023-03-18T03:39:37.211Z,-2.30
2023-03-18T03:42:17.202Z,-2.28
2023-03-18T03:45:12.181Z,-2.29
2023-03-18T03:48:06.184Z,-2.31
2023-03-18T03:50:54.187Z,-2.36
2023-03-18T03:53:34.213Z,-2.34
2023-03-18T03:56:28.195Z,-2.35
2023-03-18T03:59:17.194Z,-2.39
2023-03-18T04:01:57.200Z,-2.38
2023-03-18T04:04:52.195Z,-2.37
2023-03-18T04:07:39.202Z,-2.41
2023-03-18T04:10:20.186Z,-2.38
2023-03-18T04:13:07.292Z,-2.38
2023-03-18T04:15:41.280Z,-2.39
2023-03-18T04:18:28.210Z,-2.41
2023-03-18T04:21:01.859Z,-2.41
2023-03-18T04:23:48.182Z,-2.41
2023-03-18T04:26:21.291Z,-2.38
2023-03-18T04:29:08.183Z,-2.40
2023-03-18T04:31:41.727Z,-2.41
2023-03-18T04:34:29.203Z,-2.42
2023-03-18T04:37:02.386Z,-2.44
2023-03-18T04:39:49.204Z,-2.42
2023-03-18T04:42:23.342Z,-2.44
2023-03-18T04:45:12.231Z,-2.42
2023-03-18T04:47:45.586Z,-2.37
2023-03-18T04:50:32.466Z,-2.34
2023-03-18T04:53:05.337Z,-2.31
2023-03-18T04:55:52.255Z,-2.27
2023-03-18T04:58:25.290Z,-2.29
2023-03-18T05:01:12.235Z,-2.28
2023-03-18T05:03:46.329Z,-2.26
2023-03-18T05:06:42.195Z,-2.25
2023-03-18T05:09:36.218Z,-2.25
2023-03-18T05:12:23.204Z,-2.26
2023-03-18T05:15:03.237Z,-2.23
2023-03-18T05:17:57.249Z,-2.23
2023-03-18T05:20:44.208Z,-2.19
2023-03-18T05:23:17.451Z,-2.15
2023-03-18T05:26:04.214Z,-2.11
2023-03-18T05:28:39.214Z,-2.12
2023-03-18T05:31:26.259Z,-2.08
2023-03-18T05:34:00.409Z,-2.03
2023-03-18T05:36:47.237Z,-2.00
2023-03-18T05:39:20.353Z,-1.95
2023-03-18T05:42:07.202Z,-1.89
2023-03-18T05:44:40.512Z,-1.83
2023-03-18T05:47:27.238Z,-1.67
2023-03-18T05:50:01.656Z,-1.45
2023-03-18T05:52:48.233Z,-1.20
2023-03-18T05:55:23.452Z,-0.96
2023-03-18T05:58:10.306Z,-0.67
2023-03-18T06:00:51.211Z,-0.39
2023-03-18T06:03:45.321Z,-0.11
2023-03-18T06:06:33.219Z,0.18
2023-03-18T06:09:07.045Z,0.42
2023-03-18T06:11:54.238Z,0.65
2023-03-18T06:14:36.227Z,0.88
2023-03-18T06:17:23.281Z,1.08
2023-03-18T06:19:57.001Z,1.24
2023-03-18T06:22:43.233Z,1.40
2023-03-18T06:25:23.261Z,1.60
2023-03-18T06:28:10.235Z,1.83
2023-03-18T06:30:43.344Z,2.05
2023-03-18T06:33:32.226Z,2.30
2023-03-18T06:36:12.296Z,2.53
2023-03-18T06:39:00.273Z,2.79
2023-03-18T06:41:40.260Z,3.00
2023-03-18T06:44:35.273Z,3.25
2023-03-18T06:47:22.239Z,3.49
2023-03-18T06:49:56.880Z,3.71
2023-03-18T06:52:44.246Z,3.92
2023-03-18T06:55:24.255Z,4.11
2023-03-18T06:58:12.261Z,4.25
2023-03-18T07:00:47.776Z,4.40
2023-03-18T07:03:34.247Z,4.57
2023-03-18T07:06:14.236Z,4.73
2023-03-18T07:09:08.292Z,4.94
2023-03-18T07:11:55.278Z,5.11
2023-03-18T07:14:28.750Z,5.27
2023-03-18T07:17:17.256Z,5.33
2023-03-18T07:19:50.342Z,5.40
2023-03-18T07:22:37.284Z,5.54
2023-03-18T07:25:11.465Z,5.63
2023-03-18T07:27:58.264Z,5.76
2023-03-18T07:30:31.337Z,5.89
2023-03-18T07:33:18.245Z,5.98
2023-03-18T07:35:51.445Z,6.14
2023-03-18T07:38:38.271Z,6.35
2023-03-18T07:41:18.287Z,6.45
2023-03-18T07:44:12.267Z,6.54
2023-03-18T07:46:59.275Z,6.73
2023-03-18T07:49:32.385Z,6.93
2023-03-18T07:52:19.281Z,7.10
2023-03-18T07:54:52.528Z,7.33
2023-03-18T07:57:39.299Z,7.80
2023-03-18T08:00:14.399Z,8.09
2023-03-18T08:03:02.276Z,8.14
2023-03-18T08:05:35.454Z,8.29
2023-03-18T08:08:22.273Z,8.38
2023-03-18T08:10:55.366Z,8.46
2023-03-18T08:13:44.305Z,8.59
2023-03-18T08:16:18.620Z,8.63
2023-03-18T08:19:05.296Z,8.82
2023-03-18T08:21:38.507Z,8.96
2023-03-18T08:24:25.274Z,9.03
2023-03-18T08:26:58.426Z,9.16
2023-03-18T08:29:45.286Z,9.34
2023-03-18T08:32:21.980Z,9.42
2023-03-18T08:35:09.284Z,9.56
2023-03-18T08:37:42.690Z,9.60
2023-03-18T08:40:29.304Z,9.73
2023-03-18T08:43:02.374Z,10.01
2023-03-18T08:45:49.347Z,10.28
2023-03-18T08:48:29.288Z,10.43
2023-03-18T08:51:23.292Z,10.65
2023-03-18T08:54:10.322Z,10.69
2023-03-18T08:56:43.463Z,10.89
2023-03-18T08:59:30.320Z,11.03
2023-03-18T09:02:03.609Z,11.13
2023-03-18T09:04:57.327Z,11.36
2023-03-18T09:07:52.308Z,11.26
2023-03-18T09:10:40.312Z,11.42
2023-03-18T09:13:21.302Z,11.80
2023-03-18T09:16:08.386Z,12.06
2023-03-18T09:18:48.943Z,12.10
2023-03-18T09:21:42.319Z,12.11
2023-03-18T09:24:36.325Z,12.16
2023-03-18T09:27:30.325Z,12.24
2023-03-18T09:30:24.325Z,12.42
2023-03-18T09:33:13.361Z,12.42
2023-03-18T09:35:46.449Z,12.44
2023-03-18T09:38:33.329Z,12.48
2023-03-18T09:41:51.464Z,12.31
2023-03-18T09:44:43.324Z,12.20
2023-03-18T09:47:38.429Z,12.04
2023-03-18T09:50:50.344Z,12.03
2023-03-18T09:53:40.362Z,12.02
2023-03-18T09:56:52.346Z,11.91
2023-03-18T09:59:50.316Z,11.67
2023-03-18T10:02:49.469Z,11.66
2023-03-18T10:05:55.324Z,11.55
2023-03-18T10:09:13.331Z,11.56
2023-03-18T10:12:14.368Z,11.56
2023-03-18T10:14:53.465Z,11.41
2023-03-18T10:18:15.364Z,11.35
2023-03-18T10:21:10.535Z,11.31
2023-03-18T10:24:24.344Z,11.22
2023-03-18T10:27:12.471Z,11.28
2023-03-18T10:30:10.351Z,11.25
2023-03-18T10:33:05.395Z,11.11
2023-03-18T10:36:11.384Z,11.04
2023-03-18T10:39:01.346Z,11.16
2023-03-18T10:41:51.346Z,11.17
2023-03-18T10:44:45.316Z,11.18
2023-03-18T10:47:30.507Z,11.11
2023-03-18T10:50:30.667Z,11.18
2023-03-18T10:53:30.275Z,11.20
2023-03-18T10:56:19.364Z,11.18
2023-03-18T10:58:53.701Z,11.21
2023-03-18T11:01:43.438Z,11.24
2023-03-18T11:04:29.358Z,11.29
2023-03-18T11:07:31.368Z,11.39
2023-03-18T11:10:24.387Z,11.40
2023-03-18T11:13:02.369Z,11.38
2023-03-18T11:15:59.463Z,11.32
2023-03-18T11:18:42.365Z,11.32
2023-03-18T11:21:38.376Z,11.32
2023-03-18T11:24:42.408Z,11.41
2023-03-18T11:27:21.471Z,11.47
2023-03-18T11:30:34.849Z,11.47
2023-03-18T11:33:30.493Z,11.53
2023-03-18T11:36:27.405Z,11.39
2023-03-18T11:39:23.765Z,11.46
2023-03-18T11:42:24.420Z,11.59
2023-03-18T11:45:01.563Z,11.61
2023-03-18T11:47:50.388Z,11.53
2023-03-18T11:50:34.652Z,11.52
2023-03-18T11:53:55.386Z,11.57
2023-03-18T11:56:49.498Z,11.57
2023-03-18T11:59:36.374Z,11.58
2023-03-18T12:02:37.501Z,11.65
2023-03-18T12:06:00.365Z,11.69
2023-03-18T12:09:04.410Z,11.76
2023-03-18T12:12:03.387Z,11.70
2023-03-18T12:15:04.564Z,11.70
2023-03-18T12:18:13.399Z,11.75
2023-03-18T12:20:52.654Z,11.74
2023-03-18T12:23:45.396Z,11.70
2023-03-18T12:26:48.414Z,11.70
2023-03-18T12:29:54.411Z,11.70
2023-03-18T12:32:49.450Z,11.60
2023-03-18T12:35:58.751Z,11.48
2023-03-18T12:38:51.403Z,11.40
2023-03-18T12:41:30.942Z,11.36
2023-03-18T12:44:32.416Z,11.34
2023-03-18T12:47:25.478Z,11.32
2023-03-18T12:50:41.420Z,11.20
2023-03-18T12:53:40.433Z,11.13
2023-03-18T12:56:23.529Z,11.09
2023-03-18T12:59:19.480Z,11.06
2023-03-18T13:02:23.697Z,11.05
2023-03-18T13:05:27.425Z,10.97
2023-03-18T13:08:23.472Z,10.93
2023-03-18T13:11:42.408Z,10.86
2023-03-18T13:14:47.487Z,10.85
2023-03-18T13:17:36.428Z,10.82
2023-03-18T13:20:30.591Z,10.78
2023-03-18T13:23:39.474Z,10.76
2023-03-18T13:26:33.480Z,10.74
2023-03-18T13:29:42.980Z,10.74
2023-03-18T13:32:30.570Z,10.72
2023-03-18T13:36:03.519Z,10.72
2023-03-18T13:39:25.477Z,10.68
2023-03-18T13:42:36.420Z,10.70
2023-03-18T13:45:37.477Z,10.66
2023-03-18T13:48:51.564Z,10.63
2023-03-18T13:51:38.439Z,10.58
2023-03-18T13:54:26.446Z,10.61
2023-03-18T13:57:30.429Z,10.57
2023-03-18T14:00:35.481Z,10.56
2023-03-18T14:03:29.492Z,10.50
2023-03-18T14:06:23.471Z,10.49
2023-03-18T14:10:18.377Z,10.49
2023-03-18T14:13:41.474Z,10.45
2023-03-18T14:16:38.427Z,10.43
2023-03-18T14:19:41.475Z,10.36
2023-03-18T14:22:35.476Z,10.31
2023-03-18T14:25:37.288Z,10.30
2023-03-18T14:28:27.479Z,10.28
2023-03-18T14:31:19.642Z,10.28
2023-03-18T14:34:10.446Z,10.26
2023-03-18T14:36:59.480Z,10.24
2023-03-18T14:39:59.483Z,10.20
2023-03-18T14:43:07.478Z,10.21
2023-03-18T14:45:55.478Z,10.21
2023-03-18T14:48:49.479Z,10.22
2023-03-18T14:51:38.496Z,10.23
2023-03-18T14:54:18.603Z,10.17
2023-03-18T14:57:10.527Z,10.13
2023-03-18T14:59:45.668Z,10.13
2023-03-18T15:02:40.537Z,10.10
2023-03-18T15:05:14.695Z,10.07
2023-03-18T15:08:01.482Z,10.01
2023-03-18T15:10:44.515Z,9.98
2023-03-18T15:13:39.578Z,9.93
2023-03-18T15:16:26.559Z,9.91
2023-03-18T15:19:01.610Z,9.88
2023-03-18T15:21:48.514Z,9.84
2023-03-18T15:24:26.929Z,9.80
2023-03-18T15:27:21.492Z,9.73
2023-03-18T15:30:04.505Z,9.69
2023-03-18T15:32:58.577Z,9.66
2023-03-18T15:35:32.983Z,9.63
2023-03-18T15:38:24.522Z,9.55
2023-03-18T15:41:05.667Z,9.50
2023-03-18T15:43:55.501Z,9.48
2023-03-18T15:46:36.600Z,9.42
2023-03-18T15:49:27.506Z,9.34
2023-03-18T15:52:15.503Z,9.32
2023-03-18T15:55:09.507Z,9.22
2023-03-18T15:58:07.538Z,9.15
2023-03-18T16:01:01.564Z,9.08
2023-03-18T16:03:49.512Z,9.01
2023-03-18T16:06:22.906Z,8.90
2023-03-18T16:09:27.506Z,8.85
2023-03-18T16:12:12.570Z,8.78
2023-03-18T16:15:07.572Z,8.70
2023-03-18T16:17:55.526Z,8.65
2023-03-18T16:20:39.497Z,8.58
2023-03-18T16:23:33.510Z,8.51
2023-03-18T16:26:29.499Z,8.45
2023-03-18T16:29:34.588Z,8.35
2023-03-18T16:32:24.568Z,8.26
2023-03-18T16:35:04.565Z,8.18
2023-03-18T16:37:59.512Z,8.06
2023-03-18T16:40:46.554Z,8.01
2023-03-18T16:43:38.702Z,7.91
2023-03-18T16:46:30.633Z,7.81
2023-03-18T16:49:03.693Z,7.73
2023-03-18T16:51:51.518Z,7.62
2023-03-18T16:54:33.607Z,7.57
2023-03-18T16:57:33.522Z,7.42
2023-03-18T17:00:44.605Z,7.26
2023-03-18T17:03:18.660Z,7.15
2023-03-18T17:06:13.518Z,7.04
2023-03-18T17:09:07.521Z,6.93
2023-03-18T17:12:00.579Z,6.82
2023-03-18T17:14:41.683Z,6.75
2023-03-18T17:17:34.563Z,6.66
2023-03-18T17:20:11.462Z,6.56
2023-03-18T17:22:58.574Z,6.43
2023-03-18T17:25:41.597Z,6.30
2023-03-18T17:28:38.557Z,6.16
2023-03-18T17:31:12.696Z,6.04
2023-03-18T17:33:59.588Z,5.94
2023-03-18T17:36:39.588Z,5.82
2023-03-18T17:39:26.644Z,5.68
2023-03-18T17:42:01.349Z,5.58
2023-03-18T17:44:48.608Z,5.48
2023-03-18T17:47:21.684Z,5.39
2023-03-18T17:50:08.565Z,5.30
2023-03-18T17:52:51.402Z,5.20
2023-03-18T17:55:45.583Z,5.09
2023-03-18T17:58:34.607Z,5.00
2023-03-18T18:01:19.751Z,4.93
2023-03-18T18:04:06.556Z,4.82
2023-03-18T18:06:39.677Z,4.74
2023-03-18T18:09:27.584Z,4.66
2023-03-18T18:12:00.698Z,4.56
2023-03-18T18:14:50.569Z,4.50
2023-03-18T18:17:31.578Z,4.42
2023-03-18T18:20:23.583Z,4.36
2023-03-18T18:23:03.121Z,4.32
2023-03-18T18:25:49.583Z,4.25
2023-03-18T18:28:29.365Z,4.17
2023-03-18T18:31:19.768Z,4.11
2023-03-18T18:34:02.619Z,4.04
2023-03-18T18:36:49.595Z,3.98
2023-03-18T18:39:23.833Z,3.93
2023-03-18T18:42:10.599Z,3.88
2023-03-18T18:44:51.584Z,3.83
2023-03-18T18:47:42.615Z,3.78
2023-03-18T18:50:24.202Z,3.73
2023-03-18T18:53:21.578Z,3.67
2023-03-18T18:55:54.737Z,3.60
2023-03-18T18:58:43.646Z,3.54
2023-03-18T19:01:18.708Z,3.49
2023-03-18T19:04:05.693Z,3.47
2023-03-18T19:06:39.709Z,3.45
2023-03-18T19:09:30.611Z,3.44
2023-03-18T19:12:04.693Z,3.41
2023-03-18T19:14:53.594Z,3.40
2023-03-18T19:17:29.677Z,3.38
2023-03-18T19:20:37.590Z,3.34
2023-03-18T19:23:22.630Z,3.29
2023-03-18T19:26:12.625Z,3.24
2023-03-18T19:28:57.570Z,3.20
2023-03-18T19:31:47.657Z,3.13
2023-03-18T19:34:33.628Z,3.05
2023-03-18T19:37:36.625Z,3.01
2023-03-18T19:40:31.642Z,2.95
2023-03-18T19:43:04.726Z,2.90
2023-03-18T19:45:55.656Z,2.87
2023-03-18T19:48:39.659Z,2.83
2023-03-18T19:51:35.627Z,2.79
2023-03-18T19:54:43.633Z,2.74
2023-03-18T19:57:32.641Z,2.70
2023-03-18T20:00:31.605Z,2.67
2023-03-18T20:03:05.692Z,2.67
2023-03-18T20:05:53.640Z,2.65
2023-03-18T20:08:27.689Z,2.63
2023-03-18T20:11:18.678Z,2.58
2023-03-18T20:13:51.913Z,2.52
2023-03-18T20:16:38.670Z,2.49
2023-03-18T20:19:11.693Z,2.45
2023-03-18T20:21:58.633Z,2.42
2023-03-18T20:24:35.724Z,2.39
2023-03-18T20:27:23.647Z,2.36
2023-03-18T20:29:56.783Z,2.32
2023-03-18T20:32:44.677Z,2.26
2023-03-18T20:35:18.648Z,2.23
2023-03-18T20:38:10.668Z,2.22
2023-03-18T20:40:55.676Z,2.19
2023-03-18T20:43:43.649Z,2.16
2023-03-18T20:46:27.719Z,2.13
2023-03-18T20:49:14.640Z,2.09
2023-03-18T20:51:54.635Z,2.07
2023-03-18T20:54:41.701Z,2.05
2023-03-18T20:57:19.241Z,2.04
2023-03-18T21:00:05.647Z,2.02
2023-03-18T21:02:42.640Z,2.00
2023-03-18T21:05:30.978Z,1.94
2023-03-18T21:08:04.741Z,1.93
2023-03-18T21:10:51.702Z,1.93
2023-03-18T21:13:36.144Z,1.92
2023-03-18T21:16:23.677Z,1.89
2023-03-18T21:18:57.721Z,1.87
2023-03-18T21:21:45.671Z,1.85
2023-03-18T21:24:33.769Z,1.84
2023-03-18T21:27:28.630Z,1.83
2023-03-18T21:30:02.994Z,1.85
2023-03-18T21:32:51.929Z,1.85
2023-03-18T21:35:32.206Z,1.84
2023-03-18T21:38:19.645Z,1.84
2023-03-18T21:40:53.133Z,1.81
2023-03-18T21:43:41.681Z,1.80
2023-03-18T21:46:19.836Z,1.79
2023-03-18T21:49:06.639Z,1.78
2023-03-18T21:51:40.502Z,1.74
2023-03-18T21:54:28.650Z,1.74
2023-03-18T21:57:01.785Z,1.74
2023-03-18T21:59:48.693Z,1.74
2023-03-18T22:02:30.787Z,1.74
2023-03-18T22:05:24.717Z,1.73
2023-03-18T22:08:05.709Z,1.71
2023-03-18T22:10:53.732Z,1.71
2023-03-18T22:13:33.602Z,1.70
2023-03-18T22:16:23.725Z,1.68
2023-03-18T22:18:56.841Z,1.66
2023-03-18T22:21:43.746Z,1.65
2023-03-18T22:24:20.786Z,1.64
2023-03-18T22:27:07.702Z,1.62
2023-03-18T22:29:40.776Z,1.61
2023-03-18T22:32:48.688Z,1.61
2023-03-18T22:35:27.948Z,1.57
2023-03-18T22:38:20.642Z,1.55
2023-03-18T22:41:03.698Z,1.55
2023-03-18T22:43:50.690Z,1.56
2023-03-18T22:46:30.696Z,1.50
2023-03-18T22:49:24.653Z,1.45
2023-03-18T22:52:11.695Z,1.44
2023-03-18T22:54:51.733Z,1.40
2023-03-18T22:57:45.708Z,1.40
2023-03-18T23:00:43.711Z,1.39
2023-03-18T23:03:37.699Z,1.38
2023-03-18T23:06:33.800Z,1.36
2023-03-18T23:09:30.372Z,1.33
2023-03-18T23:12:18.685Z,1.30
2023-03-18T23:14:52.699Z,1.28
2023-03-18T23:17:39.693Z,1.24
2023-03-18T23:20:19.694Z,1.24
2023-03-18T23:23:06.709Z,1.23
2023-03-18T23:25:39.822Z,1.19
2023-03-18T23:28:26.671Z,1.19
2023-03-18T23:30:59.957Z,1.16
2023-03-18T23:33:46.663Z,1.16
2023-03-18T23:36:26.646Z,1.14
2023-03-18T23:39:20.689Z,1.12
2023-03-18T23:42:07.734Z,1.10
2023-03-18T23:44:47.739Z,1.09
2023-03-18T23:47:41.707Z,1.10
2023-03-18T23:50:28.683Z,1.09
2023-03-18T23:53:02.339Z,1.06
2023-03-18T23:55:48.890Z,1.04
2023-03-18T23:58:22.859Z,1.02
